Time;durP1;ratioP1;P1;durP2;ratioP2;P2;SDS_P1;SDS_P2;PMS_P1;PMS_P2;Temp;Humidity;BMP_temperature;BMP_pressure;BME280_temperature;BME280_humidity;BME280_pressure;Samples;Min_cycle;Max_cycle;Signal;HPM_P1;HPM_P2
2022/10/22 00:01:05;;;;;;;0.80;0.80;;;4.90;99.90;;;;;;5028085;28;20030;-70
2022/10/22 00:03:31;;;;;;;0.40;0.40;;;4.90;99.90;;;;;;5028787;28;20385;-71
2022/10/22 00:05:57;;;;;;;0.40;0.40;;;4.90;99.90;;;;;;5030805;28;20087;-70
2022/10/22 00:08:23;;;;;;;1.03;1.03;;;4.90;99.90;;;;;;5029345;28;20040;-68
2022/10/22 00:10:48;;;;;;;0.63;0.63;;;4.90;99.90;;;;;;5031444;28;20259;-70
2022/10/22 00:13:15;;;;;;;1.33;1.23;;;4.90;99.90;;;;;;5029635;28;20036;-69
2022/10/22 00:15:41;;;;;;;;;;;4.90;99.90;;;;;;5030067;28;20049;-69
2022/10/22 00:18:07;;;;;;;2.10;1.40;;;4.90;99.90;;;;;;5029354;28;19916;-70
2022/10/22 00:20:32;;;;;;;1.03;0.93;;;4.80;99.90;;;;;;5027893;28;20033;-69
2022/10/22 00:22:58;;;;;;;0.50;0.50;;;4.80;99.90;;;;;;5030173;28;20318;-69
2022/10/22 00:25:23;;;;;;;1.07;1.07;;;4.80;99.90;;;;;;5031178;28;20029;-68
2022/10/22 00:27:49;;;;;;;1.93;1.80;;;4.80;99.90;;;;;;5028702;28;20018;-70
2022/10/22 00:30:15;;;;;;;0.90;0.90;;;4.70;99.90;;;;;;5029658;28;20037;-70
2022/10/22 00:32:40;;;;;;;0.67;0.67;;;4.70;99.90;;;;;;5027615;28;20025;-68
2022/10/22 00:35:06;;;;;;;0.77;0.77;;;4.70;99.90;;;;;;5029255;28;20025;-68
2022/10/22 00:37:32;;;;;;;0.83;0.83;;;4.70;99.90;;;;;;5029031;28;20029;-68
2022/10/22 00:39:57;;;;;;;2.43;2.10;;;5.70;99.90;;;;;;5028198;28;20064;-69
2022/10/22 00:42:26;;;;;;;1.60;1.40;;;4.60;99.90;;;;;;5029129;28;20032;-68
2022/10/22 00:45:03;;;;;;;1.60;1.33;;;4.70;99.90;;;;;;5029497;28;20098;-67
2022/10/22 00:47:53;;;;;;;2.63;1.90;;;4.60;99.90;;;;;;5027108;28;20068;-71
2022/10/22 00:50:50;;;;;;;1.77;1.52;;;4.70;99.90;;;;;;5030283;28;20094;-69
2022/10/22 00:53:21;;;;;;;0.82;0.82;;;4.60;99.90;;;;;;5029729;28;20041;-69
2022/10/22 00:55:51;;;;;;;0.88;0.88;;;4.60;99.90;;;;;;5033472;28;20521;-69
2022/10/22 00:58:20;;;;;;;1.15;1.15;;;4.50;99.90;;;;;;5031461;28;20053;-70
2022/10/22 01:00:46;;;;;;;0.40;0.40;;;4.60;99.90;;;;;;5029485;28;20049;-69
2022/10/22 01:03:12;;;;;;;1.48;1.38;;;4.60;99.90;;;;;;5024919;28;20084;-69
2022/10/22 01:06:05;;;;;;;1.02;1.02;;;4.60;99.90;;;;;;5029301;28;20099;-69
2022/10/22 01:08:54;;;;;;;1.75;1.65;;;4.70;99.90;;;;;;5019894;28;20041;-68
2022/10/22 01:11:31;;;;;;;0.40;0.40;;;4.70;99.90;;;;;;5027754;28;20068;-70
2022/10/22 01:14:21;;;;;;;0.55;0.55;;;4.80;99.90;;;;;;5015519;28;20057;-70
2022/10/22 01:16:58;;;;;;;4.13;1.63;;;4.80;99.90;;;;;;5025694;28;20033;-69
2022/10/22 01:19:49;;;;;;;0.60;0.60;;;4.80;99.90;;;;;;5028142;28;20353;-69
2022/10/22 01:22:32;;;;;;;0.70;0.70;;;4.90;99.90;;;;;;5029711;28;20025;-68
2022/10/22 01:25:27;;;;;;;0.45;0.45;;;4.80;99.90;;;;;;5028865;28;20370;-68
2022/10/22 01:28:11;;;;;;;0.45;0.45;;;4.70;99.90;;;;;;5028037;28;20029;-69
2022/10/22 01:30:38;;;;;;;2.15;1.95;;;4.80;99.90;;;;;;5026044;28;20437;-70
2022/10/22 01:33:05;;;;;;;;;;;4.70;99.90;;;;;;5033182;28;20080;-69
2022/10/22 01:35:38;;;;;;;0.57;0.57;;;4.80;99.90;;;;;;5032210;28;20256;-68
2022/10/22 01:38:07;;;;;;;2.17;1.33;;;4.80;99.90;;;;;;5032815;28;20118;-70
2022/10/22 01:40:35;;;;;;;0.30;0.30;;;4.80;99.90;;;;;;5032820;28;20481;-69
2022/10/22 01:43:06;;;;;;;1.25;1.20;;;4.70;99.90;;;;;;5032655;28;20025;-69
2022/10/22 01:45:38;;;;;;;0.52;0.52;;;4.70;99.90;;;;;;5032206;28;20042;-69
2022/10/22 01:48:38;;;;;;;1.65;1.55;;;5.60;99.90;;;;;;5032617;28;20075;-69
2022/10/22 01:51:10;;;;;;;0.98;0.93;;;4.70;99.90;;;;;;5031451;28;20045;-68
2022/10/22 01:53:53;;;;;;;2.30;1.92;;;4.70;99.90;;;;;;5031628;28;20515;-69
2022/10/22 01:56:47;;;;;;;0.65;0.65;;;4.70;99.90;;;;;;5018053;28;20113;-69
2022/10/22 01:59:38;;;;;;;0.30;0.30;;;4.60;99.90;;;;;;5017229;28;20037;-69
2022/10/22 02:02:30;;;;;;;0.68;0.68;;;4.70;99.90;;;;;;5032574;28;20531;-69
2022/10/22 02:04:59;;;;;;;3.67;2.78;;;4.80;99.90;;;;;;5031186;28;20381;-71
2022/10/22 02:07:29;;;;;;;1.35;1.30;;;4.80;99.90;;;;;;5029895;28;20022;-69
2022/10/22 02:09:57;;;;;;;0.73;0.73;;;4.90;99.90;;;;;;5033375;28;20038;-67
2022/10/22 02:12:25;;;;;;;0.30;0.30;;;4.90;99.90;;;;;;5031126;28;20104;-68
2022/10/22 02:14:51;;;;;;;1.08;1.08;;;4.90;99.90;;;;;;5031986;28;20029;-68
2022/10/22 02:17:20;;;;;;;0.68;0.68;;;4.80;99.90;;;;;;5030770;28;20045;-69
2022/10/22 02:20:02;;;;;;;1.15;1.15;;;4.80;99.90;;;;;;5033261;28;20026;-69
2022/10/22 02:22:28;;;;;;;1.00;1.00;;;4.70;99.90;;;;;;5029406;28;20041;-68
2022/10/22 02:24:55;;;;;;;0.50;0.50;;;4.80;99.90;;;;;;5031543;28;20030;-69
2022/10/22 02:27:26;;;;;;;1.10;1.02;;;4.70;99.90;;;;;;5032307;28;20030;-68
2022/10/22 02:30:04;;;;;;;0.73;0.73;;;4.70;99.90;;;;;;5032489;28;20428;-68
2022/10/22 02:32:44;;;;;;;0.88;0.88;;;6.80;99.90;;;;;;5031990;28;20396;-68
2022/10/22 02:35:16;;;;;;;0.50;0.50;;;5.30;99.90;;;;;;5032320;28;20033;-69
2022/10/22 02:37:42;;;;;;;1.60;1.50;;;4.80;99.90;;;;;;5031026;28;20400;-70
2022/10/22 02:40:08;;;;;;;;;;;4.70;99.90;;;;;;5030952;28;20096;-70
2022/10/22 02:42:36;;;;;;;0.40;0.40;;;4.80;99.90;;;;;;5029810;28;19909;-69
2022/10/22 02:45:02;;;;;;;2.28;1.70;;;4.90;99.90;;;;;;5031506;28;20449;-68
2022/10/22 02:47:28;;;;;;;2.17;1.58;;;4.90;99.90;;;;;;5030016;28;20041;-69
2022/10/22 02:49:53;;;;;;;1.90;1.10;;;4.80;99.90;;;;;;5029540;28;20389;-70
2022/10/22 02:52:19;;;;;;;0.73;0.73;;;4.80;99.90;;;;;;5029289;28;20029;-69
2022/10/22 02:54:44;;;;;;;0.63;0.63;;;4.90;99.90;;;;;;5030250;28;20496;-69
2022/10/22 02:57:10;;;;;;;0.80;0.80;;;4.70;99.90;;;;;;5031365;28;20469;-69
2022/10/22 02:59:36;;;;;;;0.80;0.80;;;4.70;99.90;;;;;;5032574;28;20029;-69
2022/10/22 03:02:01;;;;;;;0.73;0.73;;;4.70;99.90;;;;;;5030497;28;20030;-68
2022/10/22 03:04:27;;;;;;;0.40;0.40;;;4.70;99.90;;;;;;5030624;28;20053;-69
2022/10/22 03:06:53;;;;;;;1.33;1.23;;;4.70;99.90;;;;;;5030030;28;20120;-69
2022/10/22 03:09:18;;;;;;;0.87;0.87;;;4.70;99.90;;;;;;5028106;28;20038;-68
2022/10/22 03:11:44;;;;;;;0.40;0.40;;;4.70;99.90;;;;;;5030929;28;20397;-69
2022/10/22 03:14:09;;;;;;;0.63;0.63;;;4.70;99.90;;;;;;5031155;28;20030;-69
2022/10/22 03:16:35;;;;;;;1.23;1.23;;;4.60;99.90;;;;;;5027241;28;20034;-69
2022/10/22 03:19:00;;;;;;;1.80;1.70;;;4.50;99.90;;;;;;5030201;28;20096;-69
2022/10/22 03:21:46;;;;;;;0.90;0.90;;;4.40;99.90;;;;;;5031916;28;20026;-69
2022/10/22 03:24:17;;;;;;;0.45;0.45;;;4.40;99.90;;;;;;5030823;28;20041;-67
2022/10/22 03:26:44;;;;;;;0.70;0.70;;;4.50;99.90;;;;;;5030285;28;20440;-68
2022/10/22 03:29:13;;;;;;;0.40;0.40;;;4.50;99.90;;;;;;5030049;28;20022;-68
2022/10/22 03:31:38;;;;;;;0.95;0.95;;;4.40;99.90;;;;;;5031804;28;20366;-68
2022/10/22 03:34:04;;;;;;;1.03;1.03;;;4.50;99.90;;;;;;5029699;28;20037;-68
2022/10/22 03:36:31;;;;;;;0.60;0.60;;;4.50;99.90;;;;;;5029947;28;20036;-69
2022/10/22 03:38:57;;;;;;;;;;;4.40;99.90;;;;;;5030247;28;20156;-69
2022/10/22 03:41:23;;;;;;;0.60;0.60;;;4.40;99.90;;;;;;5031588;28;19909;-71
2022/10/22 03:43:51;;;;;;;0.53;0.53;;;4.40;99.90;;;;;;5029868;28;20057;-69
2022/10/22 03:46:17;;;;;;;1.23;1.13;;;4.30;99.90;;;;;;5032016;28;20033;-68
2022/10/22 03:48:43;;;;;;;1.05;1.05;;;4.30;99.90;;;;;;5028515;28;20574;-68
2022/10/22 03:51:09;;;;;;;0.97;0.97;;;4.30;99.90;;;;;;5030064;28;20029;-70
2022/10/22 03:53:35;;;;;;;2.03;1.93;;;4.40;99.90;;;;;;5027872;28;20061;-69
2022/10/22 03:56:00;;;;;;;1.03;1.03;;;4.40;99.90;;;;;;5030984;28;20044;-68
2022/10/22 03:58:26;;;;;;;1.10;1.10;;;4.40;99.90;;;;;;5030180;28;20322;-69
2022/10/22 04:00:51;;;;;;;0.50;0.50;;;4.40;99.90;;;;;;5030724;28;20048;-69
2022/10/22 04:03:17;;;;;;;1.77;1.63;;;4.40;99.90;;;;;;5028806;28;20036;-70
2022/10/22 04:05:42;;;;;;;0.40;0.40;;;4.40;99.90;;;;;;5029453;28;20063;-69
2022/10/22 04:08:08;;;;;;;0.57;0.57;;;4.50;99.90;;;;;;5030369;28;20056;-70
2022/10/22 04:10:34;;;;;;;0.83;0.83;;;4.60;99.90;;;;;;5029592;28;20532;-69
2022/10/22 04:13:00;;;;;;;0.40;0.40;;;4.50;99.90;;;;;;5029289;28;20029;-70
2022/10/22 04:15:27;;;;;;;1.17;1.07;;;5.90;99.90;;;;;;5030478;28;20048;-71
2022/10/22 04:17:53;;;;;;;0.52;0.52;;;4.50;99.90;;;;;;5030053;28;20044;-68
2022/10/22 04:20:18;;;;;;;1.55;1.45;;;4.40;99.90;;;;;;5029440;28;20029;-68
2022/10/22 04:22:44;;;;;;;0.40;0.40;;;4.50;99.90;;;;;;5030284;28;20032;-69
2022/10/22 04:25:10;;;;;;;0.80;0.80;;;4.50;99.90;;;;;;5029655;28;20028;-69
2022/10/22 04:27:35;;;;;;;0.67;0.67;;;4.50;99.90;;;;;;5029207;28;20061;-69
2022/10/22 04:30:02;;;;;;;0.80;0.80;;;4.40;99.90;;;;;;5029257;28;20025;-68
2022/10/22 04:32:28;;;;;;;0.40;0.40;;;4.40;99.90;;;;;;5029276;28;20037;-68
2022/10/22 04:34:53;;;;;;;0.57;0.57;;;4.40;99.90;;;;;;5028137;28;20048;-68
2022/10/22 04:37:19;;;;;;;0.80;0.80;;;4.40;99.90;;;;;;5029058;28;20083;-70
2022/10/22 04:39:46;;;;;;;2.00;1.83;;;4.40;99.90;;;;;;5029123;28;20468;-69
2022/10/22 04:42:12;;;;;;;0.52;0.52;;;4.50;99.90;;;;;;5028299;28;20047;-71
2022/10/22 04:44:37;;;;;;;0.40;0.40;;;4.50;99.90;;;;;;5027546;28;20105;-70
2022/10/22 04:47:03;;;;;;;1.50;1.27;;;4.50;99.90;;;;;;5029009;28;20137;-69
2022/10/22 04:49:28;;;;;;;0.50;0.50;;;4.50;99.90;;;;;;5028323;28;20041;-69
2022/10/22 04:51:54;;;;;;;1.07;1.07;;;4.60;99.90;;;;;;5030832;28;20101;-69
2022/10/22 04:54:20;;;;;;;0.57;0.57;;;4.60;99.90;;;;;;5028962;28;20184;-70
2022/10/22 04:56:45;;;;;;;0.40;0.40;;;4.50;99.90;;;;;;5029004;28;20045;-68
2022/10/22 04:59:11;;;;;;;1.23;1.17;;;4.60;99.90;;;;;;5028445;28;20477;-69
2022/10/22 05:01:40;;;;;;;0.68;0.68;;;4.70;99.90;;;;;;5028897;28;20488;-69
2022/10/22 05:04:07;;;;;;;0.60;0.60;;;4.70;99.90;;;;;;5028176;28;20064;-69
2022/10/22 05:06:35;;;;;;;1.00;0.88;;;4.70;99.90;;;;;;5032847;28;20137;-69
2022/10/22 05:09:06;;;;;;;1.08;1.08;;;4.70;99.90;;;;;;5033506;28;20112;-69
2022/10/22 05:11:37;;;;;;;0.80;0.80;;;4.80;99.90;;;;;;5031344;28;20370;-70
2022/10/22 05:14:06;;;;;;;0.40;0.40;;;4.80;99.90;;;;;;5033124;28;20108;-69
2022/10/22 05:16:33;;;;;;;0.40;0.40;;;4.80;99.90;;;;;;5034556;28;20041;-70
2022/10/22 05:18:59;;;;;;;;;;;4.80;99.90;;;;;;5033988;28;20021;-70
2022/10/22 05:21:25;;;;;;;2.70;2.05;;;4.80;99.90;;;;;;5032690;28;20280;-70
2022/10/22 05:23:53;;;;;;;2.22;2.03;;;4.70;99.90;;;;;;5033627;28;20034;-71
2022/10/22 05:26:20;;;;;;;0.60;0.60;;;4.70;99.90;;;;;;5032961;28;20030;-70
2022/10/22 05:28:46;;;;;;;;;;;4.80;99.90;;;;;;5032574;28;20038;-70
2022/10/22 05:31:12;;;;;;;0.60;0.60;;;4.80;99.90;;;;;;5034016;28;20334;-70
2022/10/22 05:33:39;;;;;;;1.27;1.25;;;4.90;99.90;;;;;;5032212;28;20472;-69
2022/10/22 05:36:07;;;;;;;0.73;0.73;;;4.80;99.90;;;;;;5030893;28;20388;-69
2022/10/22 05:38:34;;;;;;;0.50;0.50;;;4.80;99.90;;;;;;5032709;28;20044;-69
2022/10/22 05:41:05;;;;;;;0.47;0.47;;;4.90;99.90;;;;;;5033932;28;20014;-69
2022/10/22 05:43:31;;;;;;;1.15;1.10;;;4.90;99.90;;;;;;5032037;28;20034;-69
2022/10/22 05:46:02;;;;;;;1.40;1.30;;;4.90;99.90;;;;;;5032702;28;20468;-69
2022/10/22 05:48:28;;;;;;;0.57;0.57;;;5.00;99.90;;;;;;5031975;28;20041;-69
2022/10/22 05:50:54;;;;;;;4.93;1.43;;;5.00;99.90;;;;;;5032289;28;20040;-69
2022/10/22 05:53:19;;;;;;;1.90;1.80;;;5.00;99.90;;;;;;5032780;28;20385;-72
2022/10/22 05:55:45;;;;;;;3.10;1.70;;;5.10;99.90;;;;;;5031356;28;20167;-70
2022/10/22 05:58:11;;;;;;;0.87;0.87;;;5.10;99.90;;;;;;5031544;28;20527;-69
2022/10/22 06:00:37;;;;;;;2.15;2.05;;;4.70;99.90;;;;;;5032458;28;20025;-68
2022/10/22 06:03:03;;;;;;;0.80;0.80;;;5.30;99.90;;;;;;5030593;28;20148;-69
2022/10/22 06:05:29;;;;;;;0.40;0.40;;;5.50;99.90;;;;;;5031717;28;20060;-70
2022/10/22 06:07:56;;;;;;;0.93;0.83;;;4.70;99.90;;;;;;5032524;28;20069;-69
2022/10/22 06:10:22;;;;;;;0.40;0.40;;;5.80;99.90;;;;;;5031227;28;20452;-68
2022/10/22 06:12:48;;;;;;;2.00;1.90;;;5.80;99.90;;;;;;5031980;28;20056;-69
2022/10/22 06:15:16;;;;;;;1.98;1.88;;;5.90;99.90;;;;;;5029314;28;20278;-69
2022/10/22 06:17:44;;;;;;;1.95;1.85;;;5.90;99.90;;;;;;5030925;28;20071;-70
2022/10/22 06:20:10;;;;;;;0.95;0.95;;;5.80;99.90;;;;;;5033278;28;20026;-70
2022/10/22 06:22:35;;;;;;;1.35;1.30;;;5.90;99.90;;;;;;5031638;28;20049;-69
2022/10/22 06:25:01;;;;;;;1.00;1.00;;;5.90;99.90;;;;;;5030800;28;20251;-71
2022/10/22 06:27:27;;;;;;;0.77;0.77;;;5.90;99.90;;;;;;5030312;28;20566;-70
2022/10/22 06:29:52;;;;;;;1.03;1.00;;;6.00;99.90;;;;;;5030655;28;20053;-70
2022/10/22 06:32:18;;;;;;;4.60;1.53;;;6.00;99.90;;;;;;5032205;28;20501;-69
2022/10/22 06:34:43;;;;;;;0.40;0.40;;;6.00;99.90;;;;;;5031302;28;20021;-70
2022/10/22 06:37:10;;;;;;;1.57;1.47;;;6.00;99.90;;;;;;5031389;28;20405;-70
2022/10/22 06:39:35;;;;;;;0.40;0.40;;;5.90;99.90;;;;;;5032043;28;20029;-71
2022/10/22 06:42:01;;;;;;;0.53;0.53;;;5.90;99.90;;;;;;5032024;28;20034;-71
2022/10/22 06:44:27;;;;;;;0.70;0.70;;;5.90;99.90;;;;;;5028399;28;20022;-68
2022/10/22 06:46:52;;;;;;;0.70;0.70;;;5.90;99.90;;;;;;5031668;28;20046;-69
2022/10/22 06:49:19;;;;;;;0.40;0.40;;;5.90;99.90;;;;;;5030696;28;21186;-70
2022/10/22 06:51:48;;;;;;;0.40;0.40;;;6.00;99.90;;;;;;5030918;28;20057;-69
2022/10/22 06:54:13;;;;;;;0.63;0.63;;;6.10;99.90;;;;;;5030733;28;20344;-69
2022/10/22 06:56:39;;;;;;;0.80;0.80;;;6.20;99.90;;;;;;5031404;28;20038;-69
2022/10/22 06:59:05;;;;;;;0.30;0.30;;;6.30;99.90;;;;;;5029935;28;20025;-70
2022/10/22 07:01:32;;;;;;;1.37;1.27;;;6.40;99.90;;;;;;5031062;28;20034;-69
2022/10/22 07:03:58;;;;;;;1.23;1.15;;;6.60;99.90;;;;;;5030317;28;20043;-70
2022/10/22 07:06:25;;;;;;;0.63;0.63;;;6.60;99.90;;;;;;5030527;28;20037;-70
2022/10/22 07:08:53;;;;;;;1.77;1.67;;;6.80;99.90;;;;;;5031124;28;20049;-69
2022/10/22 07:11:21;;;;;;;1.42;1.33;;;7.10;99.90;;;;;;5030389;28;20563;-68
2022/10/22 07:13:48;;;;;;;0.65;0.65;;;7.20;99.90;;;;;;5031660;28;20425;-70
2022/10/22 07:16:15;;;;;;;4.68;0.75;;;7.40;99.90;;;;;;5022125;28;20461;-69
2022/10/22 07:18:41;;;;;;;0.40;0.40;;;7.50;99.90;;;;;;5026399;28;20083;-69
2022/10/22 07:21:08;;;;;;;0.75;0.47;;;7.50;99.90;;;;;;5031086;28;20478;-71
2022/10/22 07:23:34;;;;;;;;;;;7.40;99.90;;;;;;5031536;28;20044;-68
2022/10/22 07:26:01;;;;;;;0.30;0.30;;;7.40;99.90;;;;;;5031713;28;19905;-70
2022/10/22 07:28:27;;;;;;;0.30;0.30;;;7.40;99.90;;;;;;5027877;28;20983;-69
2022/10/22 07:30:53;;;;;;;0.90;0.90;;;7.40;99.90;;;;;;5030077;28;20033;-69
2022/10/22 07:33:19;;;;;;;2.23;1.37;;;7.40;99.90;;;;;;5030137;28;20084;-70
2022/10/22 07:35:44;;;;;;;3.57;3.23;;;7.50;99.90;;;;;;5031512;28;20136;-69
2022/10/22 07:38:10;;;;;;;0.70;0.70;;;7.60;99.90;;;;;;5032266;28;20040;-68
2022/10/22 07:40:36;;;;;;;0.77;0.77;;;7.60;99.90;;;;;;5030270;28;20532;-71
2022/10/22 07:43:02;;;;;;;0.50;0.50;;;7.60;99.90;;;;;;5029914;28;20021;-70
2022/10/22 07:45:28;;;;;;;0.63;0.63;;;7.50;99.90;;;;;;5031143;28;20345;-72
2022/10/22 07:47:53;;;;;;;1.30;1.23;;;7.40;99.90;;;;;;5030384;28;20133;-68
2022/10/22 07:50:19;;;;;;;1.00;0.90;;;7.50;99.90;;;;;;5030575;28;20022;-69
2022/10/22 07:52:45;;;;;;;1.97;1.80;;;7.60;99.90;;;;;;5029158;28;20036;-71
2022/10/22 07:55:12;;;;;;;0.47;0.47;;;7.40;99.90;;;;;;5031742;28;20018;-70
2022/10/22 07:57:38;;;;;;;0.30;0.30;;;7.40;99.90;;;;;;5030007;28;20046;-68
2022/10/22 08:00:05;;;;;;;0.85;0.85;;;7.50;99.90;;;;;;5028681;28;20044;-69
2022/10/22 08:02:31;;;;;;;0.45;0.45;;;7.40;99.90;;;;;;5030245;28;20460;-69
2022/10/22 08:04:56;;;;;;;0.80;0.80;;;7.40;99.90;;;;;;5027554;28;20018;-70
2022/10/22 08:07:22;;;;;;;0.47;0.47;;;7.50;99.90;;;;;;5027795;28;20087;-69
2022/10/22 08:09:48;;;;;;;0.82;0.82;;;7.60;99.90;;;;;;5029204;28;20037;-69
2022/10/22 08:12:14;;;;;;;0.50;0.50;;;7.70;99.90;;;;;;5030272;28;20087;-70
2022/10/22 08:14:39;;;;;;;1.13;1.13;;;7.80;99.90;;;;;;5028024;28;20114;-72
2022/10/22 08:17:05;;;;;;;0.83;0.70;;;7.90;99.90;;;;;;5026769;28;20108;-70
2022/10/22 08:19:31;;;;;;;0.60;0.60;;;7.90;99.90;;;;;;5028823;28;20057;-70
2022/10/22 08:21:57;;;;;;;1.20;1.17;;;7.90;99.90;;;;;;5027656;28;20044;-70
2022/10/22 08:24:23;;;;;;;1.83;1.73;;;8.00;99.90;;;;;;5028843;28;20449;-68
2022/10/22 08:26:49;;;;;;;1.23;1.23;;;7.90;99.90;;;;;;5030355;28;20116;-70
2022/10/22 08:29:15;;;;;;;1.77;1.67;;;7.90;99.90;;;;;;5028567;28;20033;-70
2022/10/22 08:31:40;;;;;;;0.80;0.80;;;7.90;99.90;;;;;;5029063;28;20029;-71
2022/10/22 08:34:07;;;;;;;1.17;1.17;;;8.00;99.90;;;;;;5028608;28;20026;-71
2022/10/22 08:36:33;;;;;;;1.00;1.00;;;8.10;99.90;;;;;;5026394;28;20079;-69
2022/10/22 08:38:58;;;;;;;0.60;0.60;;;8.20;99.90;;;;;;5021278;28;20029;-69
2022/10/22 08:41:24;;;;;;;1.47;1.40;;;8.30;99.90;;;;;;5030068;28;20038;-69
2022/10/22 08:44:21;;;;;;;1.33;1.23;;;8.40;99.90;;;;;;5030268;28;20083;-70
2022/10/22 08:47:13;;;;;;;1.15;1.13;;;8.40;99.90;;;;;;5029153;28;20099;-70
2022/10/22 08:49:41;;;;;;;0.50;0.50;;;8.50;99.90;;;;;;5030508;28;20038;-70
2022/10/22 08:52:18;;;;;;;0.35;0.35;;;8.40;99.90;;;;;;5030526;28;20041;-69
2022/10/22 08:54:57;;;;;;;;;;;8.50;99.90;;;;;;5029251;28;20388;-69
2022/10/22 08:57:44;;;;;;;2.53;2.30;;;8.50;99.90;;;;;;5026947;28;20346;-69
2022/10/22 09:00:12;;;;;;;0.40;0.40;;;8.50;99.90;;;;;;5010756;28;20108;-69
2022/10/22 09:03:08;;;;;;;0.30;0.30;;;8.50;99.90;;;;;;5017526;28;20022;-70
2022/10/22 09:05:55;;;;;;;0.40;0.40;;;8.50;99.90;;;;;;5027133;28;20026;-69
2022/10/22 09:08:21;;;;;;;0.52;0.52;;;8.50;99.90;;;;;;5029369;28;20425;-71
2022/10/22 09:10:53;;;;;;;0.60;0.60;;;8.60;99.90;;;;;;5026936;28;20099;-69
2022/10/22 09:13:21;;;;;;;0.95;0.95;;;8.60;99.90;;;;;;5028260;28;20377;-69
2022/10/22 09:15:56;;;;;;;2.75;1.83;;;8.50;99.90;;;;;;5028976;28;20025;-69
2022/10/22 09:18:44;;;;;;;0.52;0.52;;;8.50;99.90;;;;;;5028212;28;20052;-68
2022/10/22 09:21:32;;;;;;;1.08;0.98;;;8.40;99.90;;;;;;5029013;28;20512;-69
2022/10/22 09:24:31;;;;;;;0.65;0.65;;;8.40;99.90;;;;;;5029248;28;20083;-70
2022/10/22 09:26:57;;;;;;;;;;;8.30;99.90;;;;;;5030196;28;20144;-68
2022/10/22 09:29:30;;;;;;;0.63;0.63;;;8.20;99.90;;;;;;5027732;28;20011;-69
2022/10/22 09:31:56;;;;;;;0.47;0.47;;;8.30;99.90;;;;;;5027045;28;20159;-68
2022/10/22 09:34:22;;;;;;;0.40;0.40;;;8.30;99.90;;;;;;5028261;28;20076;-69
2022/10/22 09:36:57;;;;;;;0.90;0.90;;;8.30;99.90;;;;;;5029080;28;20044;-70
2022/10/22 09:39:30;;;;;;;0.95;0.90;;;8.30;99.90;;;;;;5014778;28;20275;-70
2022/10/22 09:41:56;;;;;;;0.77;0.77;;;8.30;99.90;;;;;;5028008;28;20026;-69
2022/10/22 09:44:21;;;;;;;0.73;0.73;;;8.40;99.90;;;;;;5028948;28;20091;-71
2022/10/22 09:46:47;;;;;;;1.17;1.17;;;8.40;99.90;;;;;;5026966;28;20623;-70
2022/10/22 09:49:16;;;;;;;0.90;0.90;;;8.40;99.90;;;;;;5028843;28;20322;-70
2022/10/22 09:51:59;;;;;;;0.40;0.40;;;8.40;99.90;;;;;;5030434;28;20045;-70
2022/10/22 09:54:25;;;;;;;1.65;1.48;;;8.50;99.90;;;;;;5033568;28;20041;-70
2022/10/22 09:56:56;;;;;;;0.40;0.40;;;8.50;99.90;;;;;;5032465;28;20497;-71
2022/10/22 09:59:31;;;;;;;2.00;1.85;;;8.50;99.90;;;;;;5031525;28;20048;-69
2022/10/22 10:02:12;;;;;;;0.50;0.50;;;8.50;99.90;;;;;;5031912;28;20065;-69
2022/10/22 10:04:55;;;;;;;0.50;0.50;;;8.50;99.90;;;;;;5013325;28;20028;-69
2022/10/22 10:07:28;;;;;;;2.20;1.25;;;8.50;99.90;;;;;;5019848;28;20033;-69
2022/10/22 10:09:54;;;;;;;0.50;0.50;;;8.60;99.90;;;;;;5031983;28;20049;-69
2022/10/22 10:12:41;;;;;;;0.50;0.50;;;8.60;99.90;;;;;;5031588;28;20076;-69
2022/10/22 10:15:23;;;;;;;1.23;1.15;;;8.60;99.90;;;;;;5032434;28;20044;-69
2022/10/22 10:18:25;;;;;;;0.93;0.90;;;8.70;99.90;;;;;;5030869;28;20112;-70
2022/10/22 10:21:16;;;;;;;3.00;2.17;;;8.80;99.90;;;;;;5023403;28;20180;-69
2022/10/22 10:24:09;;;;;;;0.82;0.82;;;8.90;99.90;;;;;;5031754;28;20079;-69
2022/10/22 10:26:50;;;;;;;0.40;0.40;;;9.00;99.90;;;;;;5032260;28;20068;-70
2022/10/22 10:29:30;;;;;;;0.82;0.82;;;9.00;99.90;;;;;;5033383;28;20076;-69
2022/10/22 10:32:04;;;;;;;0.93;0.93;;;9.00;99.90;;;;;;5032052;28;20029;-69
2022/10/22 10:34:47;;;;;;;0.40;0.40;;;9.10;99.90;;;;;;5026908;28;20038;-69
2022/10/22 10:37:23;;;;;;;2.00;1.10;;;9.20;99.90;;;;;;5032272;28;20108;-71
2022/10/22 10:40:17;;;;;;;0.68;0.68;;;9.30;99.90;;;;;;5013609;28;20045;-70
2022/10/22 10:43:15;;;;;;;2.85;1.70;;;9.30;99.90;;;;;;5029187;28;20037;-70
2022/10/22 10:45:59;;;;;;;0.52;0.52;;;9.30;99.90;;;;;;5021325;28;20485;-69
2022/10/22 10:48:50;;;;;;;0.85;0.85;;;9.30;99.90;;;;;;5030800;28;20042;-70
2022/10/22 10:51:21;;;;;;;0.40;0.40;;;9.40;99.90;;;;;;5032007;28;20036;-72
2022/10/22 10:54:06;;;;;;;0.30;0.30;;;9.30;99.90;;;;;;5031095;28;20096;-69
2022/10/22 10:57:04;;;;;;;1.35;1.25;;;9.40;99.90;;;;;;5030620;28;20045;-70
2022/10/22 10:59:59;;;;;;;2.63;2.05;;;9.40;99.90;;;;;;5033603;28;20111;-69
2022/10/22 11:02:46;;;;;;;0.60;0.60;;;9.40;99.90;;;;;;5023444;28;20040;-68
2022/10/22 11:05:31;;;;;;;3.67;1.88;;;9.50;99.90;;;;;;5029151;28;20376;-69
2022/10/22 11:07:59;;;;;;;0.65;0.65;;;9.50;99.90;;;;;;5030204;28;20531;-72
2022/10/22 11:10:30;;;;;;;0.60;0.60;;;9.50;99.90;;;;;;5030632;28;20088;-69
2022/10/22 11:13:02;;;;;;;0.50;0.50;;;9.50;99.90;;;;;;5030361;28;20496;-70
2022/10/22 11:15:35;;;;;;;17.58;1.23;;;9.40;99.90;;;;;;5029848;28;20034;-70
2022/10/22 11:18:36;;;;;;;0.30;0.30;;;9.50;99.90;;;;;;5030640;28;20125;-69
2022/10/22 11:21:27;;;;;;;0.93;0.93;;;9.50;99.90;;;;;;5031865;28;20125;-70
2022/10/22 11:24:17;;;;;;;0.70;0.70;;;9.60;99.90;;;;;;5031202;28;20036;-68
2022/10/22 11:26:55;;;;;;;0.40;0.40;;;9.60;99.90;;;;;;5029704;28;20036;-69
2022/10/22 11:29:24;;;;;;;0.45;0.45;;;9.60;99.90;;;;;;5029887;28;20423;-70
2022/10/22 11:31:53;;;;;;;0.40;0.40;;;9.70;99.90;;;;;;5029238;28;20030;-71
2022/10/22 11:34:26;;;;;;;0.93;0.93;;;9.80;99.90;;;;;;5029130;28;20481;-70
2022/10/22 11:36:53;;;;;;;1.17;1.10;;;9.90;99.90;;;;;;5030339;28;20040;-69
2022/10/22 11:39:47;;;;;;;2.78;1.20;;;9.90;99.90;;;;;;5029521;28;20041;-70
2022/10/22 11:42:30;;;;;;;0.70;0.60;;;9.90;99.90;;;;;;5016993;28;20037;-70
2022/10/22 11:45:03;;;;;;;0.80;0.80;;;9.90;99.90;;;;;;5029308;28;20040;-70
2022/10/22 11:47:40;;;;;;;0.70;0.68;;;10.00;99.90;;;;;;5029215;28;20535;-69
2022/10/22 11:50:39;;;;;;;0.90;0.90;;;10.10;99.90;;;;;;5029223;28;20128;-72
2022/10/22 11:53:13;;;;;;;1.48;1.38;;;10.10;99.90;;;;;;5028679;28;20109;-68
2022/10/22 11:55:46;;;;;;;1.02;1.02;;;10.20;99.90;;;;;;5031544;28;20069;-68
2022/10/22 11:58:27;;;;;;;1.48;1.38;;;10.20;99.90;;;;;;5030193;28;20028;-71
2022/10/22 12:01:01;;;;;;;0.60;0.60;;;10.30;99.90;;;;;;5030937;28;20037;-69
2022/10/22 12:03:30;;;;;;;0.70;0.70;;;10.30;99.90;;;;;;5026154;28;20041;-70
2022/10/22 12:06:11;;;;;;;2.13;1.40;;;10.30;99.90;;;;;;5029039;28;20041;-70
2022/10/22 12:08:51;;;;;;;1.30;1.20;;;10.40;99.90;;;;;;5028445;28;20033;-71
2022/10/22 12:11:39;;;;;;;0.50;0.50;;;10.40;99.90;;;;;;5028990;28;20546;-69
2022/10/22 12:14:33;;;;;;;1.67;1.58;;;10.40;99.90;;;;;;5010603;28;20085;-71
2022/10/22 12:17:13;;;;;;;0.60;0.60;;;10.50;99.90;;;;;;5017325;28;20374;-69
2022/10/22 12:20:06;;;;;;;0.47;0.47;;;10.50;99.90;;;;;;5030127;28;20481;-69
2022/10/22 12:22:36;;;;;;;0.80;0.80;;;10.50;99.90;;;;;;5028867;28;20401;-70
2022/10/22 12:25:08;;;;;;;1.30;1.23;;;10.60;99.90;;;;;;5029781;28;20028;-69
2022/10/22 12:27:37;;;;;;;3.67;1.73;;;10.60;99.90;;;;;;5029317;28;20033;-69
2022/10/22 12:30:22;;;;;;;0.80;0.80;;;10.70;99.90;;;;;;5028012;28;20037;-69
2022/10/22 12:32:59;;;;;;;0.35;0.35;;;10.70;99.90;;;;;;5028542;28;20034;-71
2022/10/22 12:35:27;;;;;;;0.57;0.57;;;10.80;99.90;;;;;;5028514;28;20378;-70
2022/10/22 12:38:12;;;;;;;0.95;0.95;;;10.70;99.90;;;;;;5028439;28;20144;-68
2022/10/22 12:40:40;;;;;;;0.70;0.70;;;10.70;99.90;;;;;;5026464;28;20431;-71
2022/10/22 12:43:17;;;;;;;0.60;0.60;;;10.80;99.90;;;;;;5028437;28;20370;-72
2022/10/22 12:45:46;;;;;;;1.13;1.02;;;10.90;99.90;;;;;;5030531;28;20039;-69
2022/10/22 12:48:18;;;;;;;1.05;1.05;;;11.00;99.90;;;;;;5027300;28;20099;-69
2022/10/22 12:50:48;;;;;;;0.57;0.57;;;10.90;99.90;;;;;;5021849;28;20394;-72
2022/10/22 12:53:18;;;;;;;1.60;1.50;;;10.90;99.90;;;;;;5029960;28;20507;-70
2022/10/22 12:55:49;;;;;;;0.73;0.73;;;11.00;99.90;;;;;;5028415;28;20441;-70
2022/10/22 12:58:25;;;;;;;2.85;1.77;;;11.00;99.90;;;;;;5029583;28;20061;-69
2022/10/22 13:00:56;;;;;;;0.50;0.50;;;11.10;99.90;;;;;;5030471;28;20689;-69
2022/10/22 13:03:40;;;;;;;1.15;1.05;;;11.20;99.90;;;;;;5031486;28;20025;-69
2022/10/22 13:06:18;;;;;;;0.77;0.77;;;11.30;99.90;;;;;;5029024;28;20059;-70
2022/10/22 13:09:16;;;;;;;0.90;0.90;;;11.30;99.90;;;;;;5020717;28;20044;-70
2022/10/22 13:11:48;;;;;;;0.90;0.90;;;11.20;99.90;;;;;;5030276;28;20028;-70
2022/10/22 13:14:24;;;;;;;1.52;1.42;;;11.20;99.90;;;;;;5028797;28;20404;-70
2022/10/22 13:17:13;;;;;;;0.60;0.60;;;11.20;99.90;;;;;;5029412;28;20086;-69
2022/10/22 13:20:07;;;;;;;0.47;0.47;;;11.20;99.90;;;;;;5029689;28;20033;-69
2022/10/22 13:22:39;;;;;;;1.23;1.13;;;11.20;99.90;;;;;;5029107;28;20034;-69